sensor_id;sensor_type;location;lat;lon;timestamp;temperature;humidity
56336;DHT22;42241;53.510;10.170;2023-04-01T00:02:21;10.60;99.90
56336;DHT22;42241;53.510;10.170;2023-04-01T00:04:47;10.60;99.90
56336;DHT22;42241;53.510;10.170;2023-04-01T00:07:12;10.60;99.90
56336;DHT22;42241;53.510;10.170;2023-04-01T00:09:38;10.60;99.90
56336;DHT22;42241;53.510;10.170;2023-04-01T00:12:03;10.60;99.90
56336;DHT22;42241;53.510;10.170;2023-04-01T00:14:29;10.60;99.90
56336;DHT22;42241;53.510;10.170;2023-04-01T00:16:57;10.60;99.90
56336;DHT22;42241;53.510;10.170;2023-04-01T00:19:23;10.60;99.90
56336;DHT22;42241;53.510;10.170;2023-04-01T00:21:48;10.60;99.90
56336;DHT22;42241;53.510;10.170;2023-04-01T00:24:17;10.60;99.90
56336;DHT22;42241;53.510;10.170;2023-04-01T00:26:43;10.60;99.90
56336;DHT22;42241;53.510;10.170;2023-04-01T00:29:12;10.60;99.90
56336;DHT22;42241;53.510;10.170;2023-04-01T00:31:38;10.60;99.90
56336;DHT22;42241;53.510;10.170;2023-04-01T00:34:03;10.60;99.90
56336;DHT22;42241;53.510;10.170;2023-04-01T00:36:29;10.60;99.90
56336;DHT22;42241;53.510;10.170;2023-04-01T00:38:57;10.60;99.90
56336;DHT22;42241;53.510;10.170;2023-04-01T00:41:25;10.50;99.90
56336;DHT22;42241;53.510;10.170;2023-04-01T00:44:11;10.50;99.90
56336;DHT22;42241;53.510;10.170;2023-04-01T00:46:39;10.50;99.90
56336;DHT22;42241;53.510;10.170;2023-04-01T00:49:07;10.50;99.90
56336;DHT22;42241;53.510;10.170;2023-04-01T00:51:37;10.50;99.90
56336;DHT22;42241;53.510;10.170;2023-04-01T00:54:04;10.50;99.90
56336;DHT22;42241;53.510;10.170;2023-04-01T00:56:37;10.50;99.90
56336;DHT22;42241;53.510;10.170;2023-04-01T00:59:11;10.50;99.90
56336;DHT22;42241;53.510;10.170;2023-04-01T01:01:38;10.50;99.90
56336;DHT22;42241;53.510;10.170;2023-04-01T01:04:04;10.50;99.90
56336;DHT22;42241;53.510;10.170;2023-04-01T01:06:43;10.50;99.90
56336;DHT22;42241;53.510;10.170;2023-04-01T01:11:50;10.50;99.90
56336;DHT22;42241;53.510;10.170;2023-04-01T01:16:45;10.50;99.90
56336;DHT22;42241;53.510;10.170;2023-04-01T01:26:48;10.50;99.90
56336;DHT22;42241;53.510;10.170;2023-04-01T01:29:30;10.40;99.90
56336;DHT22;42241;53.510;10.170;2023-04-01T01:32:20;10.40;99.90
56336;DHT22;42241;53.510;10.170;2023-04-01T01:37:21;10.40;99.90
56336;DHT22;42241;53.510;10.170;2023-04-01T01:39:49;10.40;99.90
56336;DHT22;42241;53.510;10.170;2023-04-01T01:42:15;10.40;99.90
56336;DHT22;42241;53.510;10.170;2023-04-01T01:44:44;10.40;99.90
56336;DHT22;42241;53.510;10.170;2023-04-01T01:47:13;10.40;99.90
56336;DHT22;42241;53.510;10.170;2023-04-01T01:49:39;10.40;99.90
56336;DHT22;42241;53.510;10.170;2023-04-01T01:52:08;10.50;99.90
56336;DHT22;42241;53.510;10.170;2023-04-01T01:54:46;10.50;99.90
56336;DHT22;42241;53.510;10.170;2023-04-01T01:57:11;10.50;99.90
56336;DHT22;42241;53.510;10.170;2023-04-01T01:59:37;10.50;99.90
56336;DHT22;42241;53.510;10.170;2023-04-01T02:02:05;10.50;99.90
56336;DHT22;42241;53.510;10.170;2023-04-01T02:04:37;10.50;99.90
56336;DHT22;42241;53.510;10.170;2023-04-01T02:07:06;10.40;99.90
56336;DHT22;42241;53.510;10.170;2023-04-01T02:09:34;10.50;99.90
56336;DHT22;42241;53.510;10.170;2023-04-01T02:12:03;10.40;99.90
56336;DHT22;42241;53.510;10.170;2023-04-01T02:14:33;10.40;99.90
56336;DHT22;42241;53.510;10.170;2023-04-01T02:17:06;10.50;99.90
56336;DHT22;42241;53.510;10.170;2023-04-01T02:19:36;10.50;99.90
56336;DHT22;42241;53.510;10.170;2023-04-01T02:22:03;10.40;99.90
56336;DHT22;42241;53.510;10.170;2023-04-01T02:24:33;10.40;99.90
56336;DHT22;42241;53.510;10.170;2023-04-01T02:27:00;10.40;99.90
56336;DHT22;42241;53.510;10.170;2023-04-01T02:29:26;10.40;99.90
56336;DHT22;42241;53.510;10.170;2023-04-01T02:31:52;10.30;99.90
56336;DHT22;42241;53.510;10.170;2023-04-01T02:34:20;10.40;99.90
56336;DHT22;42241;53.510;10.170;2023-04-01T02:36:49;10.40;99.90
56336;DHT22;42241;53.510;10.170;2023-04-01T02:39:15;10.40;99.90
56336;DHT22;42241;53.510;10.170;2023-04-01T02:41:42;10.40;99.90
56336;DHT22;42241;53.510;10.170;2023-04-01T02:44:09;10.40;99.90
56336;DHT22;42241;53.510;10.170;2023-04-01T02:46:35;10.40;99.90
56336;DHT22;42241;53.510;10.170;2023-04-01T02:49:03;10.40;99.90
56336;DHT22;42241;53.510;10.170;2023-04-01T02:51:28;10.40;99.90
56336;DHT22;42241;53.510;10.170;2023-04-01T02:53:56;10.40;99.90
56336;DHT22;42241;53.510;10.170;2023-04-01T02:56:22;10.30;99.90
56336;DHT22;42241;53.510;10.170;2023-04-01T02:58:50;10.30;99.90
56336;DHT22;42241;53.510;10.170;2023-04-01T03:01:15;10.30;99.90
56336;DHT22;42241;53.510;10.170;2023-04-01T03:03:43;10.40;99.90
56336;DHT22;42241;53.510;10.170;2023-04-01T03:06:09;10.30;99.90
56336;DHT22;42241;53.510;10.170;2023-04-01T03:08:35;10.40;99.90
56336;DHT22;42241;53.510;10.170;2023-04-01T03:11:01;10.40;99.90
56336;DHT22;42241;53.510;10.170;2023-04-01T03:13:29;10.30;99.90
56336;DHT22;42241;53.510;10.170;2023-04-01T03:15:54;10.30;99.90
56336;DHT22;42241;53.510;10.170;2023-04-01T03:18:20;10.30;99.90
56336;DHT22;42241;53.510;10.170;2023-04-01T03:20:45;10.30;99.90
56336;DHT22;42241;53.510;10.170;2023-04-01T03:23:13;10.30;99.90
56336;DHT22;42241;53.510;10.170;2023-04-01T03:25:42;10.30;99.90
56336;DHT22;42241;53.510;10.170;2023-04-01T03:28:08;10.30;99.90
56336;DHT22;42241;53.510;10.170;2023-04-01T03:30:36;10.30;99.90
56336;DHT22;42241;53.510;10.170;2023-04-01T03:33:03;10.30;99.90
56336;DHT22;42241;53.510;10.170;2023-04-01T03:35:31;10.30;99.90
56336;DHT22;42241;53.510;10.170;2023-04-01T03:37:57;10.30;99.90
56336;DHT22;42241;53.510;10.170;2023-04-01T03:40:22;10.30;99.90
56336;DHT22;42241;53.510;10.170;2023-04-01T03:42:48;10.30;99.90
56336;DHT22;42241;53.510;10.170;2023-04-01T03:45:14;10.30;99.90
56336;DHT22;42241;53.510;10.170;2023-04-01T03:47:40;10.20;99.90
56336;DHT22;42241;53.510;10.170;2023-04-01T03:50:08;10.20;99.90
56336;DHT22;42241;53.510;10.170;2023-04-01T03:52:36;10.30;99.90
56336;DHT22;42241;53.510;10.170;2023-04-01T03:55:04;10.20;99.90
56336;DHT22;42241;53.510;10.170;2023-04-01T03:57:33;10.20;99.90
56336;DHT22;42241;53.510;10.170;2023-04-01T04:00:01;10.20;99.90
56336;DHT22;42241;53.510;10.170;2023-04-01T04:02:27;10.20;99.90
56336;DHT22;42241;53.510;10.170;2023-04-01T04:04:55;10.20;99.90
56336;DHT22;42241;53.510;10.170;2023-04-01T04:07:23;10.30;99.90
56336;DHT22;42241;53.510;10.170;2023-04-01T04:09:51;10.20;99.90
56336;DHT22;42241;53.510;10.170;2023-04-01T04:12:18;10.20;99.90
56336;DHT22;42241;53.510;10.170;2023-04-01T04:14:46;10.20;99.90
56336;DHT22;42241;53.510;10.170;2023-04-01T04:17:12;10.20;99.90
56336;DHT22;42241;53.510;10.170;2023-04-01T04:19:41;10.20;99.90
56336;DHT22;42241;53.510;10.170;2023-04-01T04:22:07;10.20;99.90
56336;DHT22;42241;53.510;10.170;2023-04-01T04:24:36;10.30;99.90
56336;DHT22;42241;53.510;10.170;2023-04-01T04:27:01;10.30;99.90
56336;DHT22;42241;53.510;10.170;2023-04-01T04:29:27;10.20;99.90
56336;DHT22;42241;53.510;10.170;2023-04-01T04:31:53;10.30;99.90
56336;DHT22;42241;53.510;10.170;2023-04-01T04:34:18;10.20;99.90
56336;DHT22;42241;53.510;10.170;2023-04-01T04:36:46;10.20;99.90
56336;DHT22;42241;53.510;10.170;2023-04-01T04:39:12;10.20;99.90
56336;DHT22;42241;53.510;10.170;2023-04-01T04:41:37;10.20;99.90
56336;DHT22;42241;53.510;10.170;2023-04-01T04:44:03;10.20;99.90
56336;DHT22;42241;53.510;10.170;2023-04-01T04:46:32;10.20;99.90
56336;DHT22;42241;53.510;10.170;2023-04-01T04:48:57;10.20;99.90
56336;DHT22;42241;53.510;10.170;2023-04-01T04:51:23;10.20;99.90
56336;DHT22;42241;53.510;10.170;2023-04-01T04:53:49;10.20;99.90
56336;DHT22;42241;53.510;10.170;2023-04-01T04:56:21;10.20;99.90
56336;DHT22;42241;53.510;10.170;2023-04-01T04:58:49;10.30;99.90
56336;DHT22;42241;53.510;10.170;2023-04-01T05:01:15;10.20;99.90
56336;DHT22;42241;53.510;10.170;2023-04-01T05:03:41;10.20;99.90
56336;DHT22;42241;53.510;10.170;2023-04-01T05:06:10;10.20;99.90
56336;DHT22;42241;53.510;10.170;2023-04-01T05:08:36;10.20;99.90
56336;DHT22;42241;53.510;10.170;2023-04-01T05:11:03;10.20;99.90
56336;DHT22;42241;53.510;10.170;2023-04-01T05:13:32;10.20;99.90
56336;DHT22;42241;53.510;10.170;2023-04-01T05:15:57;10.20;99.90
56336;DHT22;42241;53.510;10.170;2023-04-01T05:18:23;10.20;99.90
56336;DHT22;42241;53.510;10.170;2023-04-01T05:20:49;10.10;99.90
56336;DHT22;42241;53.510;10.170;2023-04-01T05:23:17;10.20;99.90
56336;DHT22;42241;53.510;10.170;2023-04-01T05:25:45;10.20;99.90
56336;DHT22;42241;53.510;10.170;2023-04-01T05:28:11;10.30;99.90
56336;DHT22;42241;53.510;10.170;2023-04-01T05:30:39;10.20;99.90
56336;DHT22;42241;53.510;10.170;2023-04-01T05:33:05;10.20;99.90
56336;DHT22;42241;53.510;10.170;2023-04-01T05:35:31;10.30;99.90
56336;DHT22;42241;53.510;10.170;2023-04-01T05:37:57;10.30;99.90
56336;DHT22;42241;53.510;10.170;2023-04-01T05:40:25;10.30;99.90
56336;DHT22;42241;53.510;10.170;2023-04-01T05:42:52;10.20;99.90
56336;DHT22;42241;53.510;10.170;2023-04-01T05:45:18;10.30;99.90
56336;DHT22;42241;53.510;10.170;2023-04-01T05:47:46;10.30;99.90
56336;DHT22;42241;53.510;10.170;2023-04-01T05:50:14;10.20;99.90
56336;DHT22;42241;53.510;10.170;2023-04-01T05:52:40;10.10;99.90
56336;DHT22;42241;53.510;10.170;2023-04-01T05:55:06;9.90;99.90
56336;DHT22;42241;53.510;10.170;2023-04-01T05:57:32;9.80;99.90
56336;DHT22;42241;53.510;10.170;2023-04-01T05:59:57;9.60;99.90
56336;DHT22;42241;53.510;10.170;2023-04-01T06:02:24;9.40;99.90
56336;DHT22;42241;53.510;10.170;2023-04-01T06:04:53;9.40;99.90
56336;DHT22;42241;53.510;10.170;2023-04-01T06:07:22;9.40;99.90
56336;DHT22;42241;53.510;10.170;2023-04-01T06:09:48;9.40;99.90
56336;DHT22;42241;53.510;10.170;2023-04-01T06:12:31;9.30;99.90
56336;DHT22;42241;53.510;10.170;2023-04-01T06:25:46;9.10;99.90
56336;DHT22;42241;53.510;10.170;2023-04-01T06:33:31;8.90;99.90
56336;DHT22;42241;53.510;10.170;2023-04-01T06:54:29;8.40;99.90
56336;DHT22;42241;53.510;10.170;2023-04-01T06:56:58;8.40;99.90
56336;DHT22;42241;53.510;10.170;2023-04-01T06:59:25;8.40;99.90
56336;DHT22;42241;53.510;10.170;2023-04-01T07:01:55;8.40;99.90
56336;DHT22;42241;53.510;10.170;2023-04-01T07:04:29;8.40;99.90
56336;DHT22;42241;53.510;10.170;2023-04-01T07:06:58;8.40;99.90
56336;DHT22;42241;53.510;10.170;2023-04-01T07:09:30;8.50;99.90
56336;DHT22;42241;53.510;10.170;2023-04-01T07:11:58;8.40;99.90
56336;DHT22;42241;53.510;10.170;2023-04-01T07:14:37;8.30;99.90
56336;DHT22;42241;53.510;10.170;2023-04-01T07:17:17;8.40;99.90
56336;DHT22;42241;53.510;10.170;2023-04-01T07:19:48;8.40;99.90
56336;DHT22;42241;53.510;10.170;2023-04-01T07:27:38;8.20;99.90
56336;DHT22;42241;53.510;10.170;2023-04-01T07:30:12;8.20;99.90
56336;DHT22;42241;53.510;10.170;2023-04-01T07:33:04;8.20;99.90
56336;DHT22;42241;53.510;10.170;2023-04-01T07:40:37;8.20;99.90
56336;DHT22;42241;53.510;10.170;2023-04-01T07:48:39;8.10;99.90
56336;DHT22;42241;53.510;10.170;2023-04-01T07:53:42;8.20;99.90
56336;DHT22;42241;53.510;10.170;2023-04-01T08:01:35;8.10;99.90
56336;DHT22;42241;53.510;10.170;2023-04-01T08:04:08;8.10;99.90
56336;DHT22;42241;53.510;10.170;2023-04-01T08:09:09;8.10;99.90
56336;DHT22;42241;53.510;10.170;2023-04-01T08:16:46;8.20;99.90
56336;DHT22;42241;53.510;10.170;2023-04-01T08:22:07;8.40;99.90
56336;DHT22;42241;53.510;10.170;2023-04-01T08:24:35;8.20;99.90
56336;DHT22;42241;53.510;10.170;2023-04-01T08:27:05;8.30;99.90
56336;DHT22;42241;53.510;10.170;2023-04-01T08:29:36;8.20;99.90
56336;DHT22;42241;53.510;10.170;2023-04-01T08:32:12;8.20;99.90
56336;DHT22;42241;53.510;10.170;2023-04-01T08:34:43;8.40;99.90
56336;DHT22;42241;53.510;10.170;2023-04-01T08:37:12;8.50;99.90
56336;DHT22;42241;53.510;10.170;2023-04-01T08:39:46;8.40;99.90
56336;DHT22;42241;53.510;10.170;2023-04-01T09:16:52;8.20;99.90
56336;DHT22;42241;53.510;10.170;2023-04-01T09:19:24;8.10;99.90
56336;DHT22;42241;53.510;10.170;2023-04-01T09:35:43;8.50;99.90
56336;DHT22;42241;53.510;10.170;2023-04-01T09:38:28;8.30;99.90
56336;DHT22;42241;53.510;10.170;2023-04-01T09:41:07;8.50;99.90
56336;DHT22;42241;53.510;10.170;2023-04-01T09:43:53;8.40;99.90
56336;DHT22;42241;53.510;10.170;2023-04-01T09:46:43;8.40;99.90
56336;DHT22;42241;53.510;10.170;2023-04-01T10:02:33;8.40;99.90
56336;DHT22;42241;53.510;10.170;2023-04-01T10:05:17;8.30;99.90
56336;DHT22;42241;53.510;10.170;2023-04-01T10:07:52;8.30;99.90
56336;DHT22;42241;53.510;10.170;2023-04-01T10:10:28;8.40;99.90
56336;DHT22;42241;53.510;10.170;2023-04-01T10:23:45;8.60;99.90
56336;DHT22;42241;53.510;10.170;2023-04-01T11:08:15;8.70;99.90
56336;DHT22;42241;53.510;10.170;2023-04-01T11:21:50;8.40;99.90
56336;DHT22;42241;53.510;10.170;2023-04-01T11:34:43;8.50;99.90
56336;DHT22;42241;53.510;10.170;2023-04-01T11:37:27;8.60;99.90
56336;DHT22;42241;53.510;10.170;2023-04-01T11:45:15;8.90;99.90
56336;DHT22;42241;53.510;10.170;2023-04-01T11:50:18;8.80;99.90
56336;DHT22;42241;53.510;10.170;2023-04-01T12:05:41;8.40;99.90
56336;DHT22;42241;53.510;10.170;2023-04-01T12:08:26;8.40;99.90
56336;DHT22;42241;53.510;10.170;2023-04-01T12:16:10;8.30;99.90
56336;DHT22;42241;53.510;10.170;2023-04-01T12:31:51;8.20;99.90
56336;DHT22;42241;53.510;10.170;2023-04-01T12:36:59;8.20;99.90
56336;DHT22;42241;53.510;10.170;2023-04-01T12:44:55;8.50;99.90
56336;DHT22;42241;53.510;10.170;2023-04-01T12:50:23;8.30;99.90
56336;DHT22;42241;53.510;10.170;2023-04-01T13:16:05;8.00;99.90
56336;DHT22;42241;53.510;10.170;2023-04-01T13:44:24;7.30;99.90
56336;DHT22;42241;53.510;10.170;2023-04-01T13:47:00;7.30;99.90
56336;DHT22;42241;53.510;10.170;2023-04-01T13:49:36;7.30;99.90
56336;DHT22;42241;53.510;10.170;2023-04-01T13:52:39;7.40;99.90
56336;DHT22;42241;53.510;10.170;2023-04-01T14:11:13;7.20;99.90
56336;DHT22;42241;53.510;10.170;2023-04-01T14:18:52;7.40;99.90
56336;DHT22;42241;53.510;10.170;2023-04-01T14:29:22;7.20;99.90
56336;DHT22;42241;53.510;10.170;2023-04-01T14:34:44;7.20;99.90
56336;DHT22;42241;53.510;10.170;2023-04-01T14:50:44;7.30;99.90
56336;DHT22;42241;53.510;10.170;2023-04-01T14:53:12;7.20;99.90
56336;DHT22;42241;53.510;10.170;2023-04-01T14:58:11;7.00;99.90
56336;DHT22;42241;53.510;10.170;2023-04-01T15:11:20;6.80;99.90
56336;DHT22;42241;53.510;10.170;2023-04-01T15:19:48;6.90;99.90
56336;DHT22;42241;53.510;10.170;2023-04-01T15:25:04;6.80;99.90
56336;DHT22;42241;53.510;10.170;2023-04-01T15:32:58;6.60;99.90
56336;DHT22;42241;53.510;10.170;2023-04-01T15:35:48;6.70;99.90
56336;DHT22;42241;53.510;10.170;2023-04-01T15:38:22;6.70;99.90
56336;DHT22;42241;53.510;10.170;2023-04-01T15:43:44;6.70;99.90
56336;DHT22;42241;53.510;10.170;2023-04-01T15:49:01;6.60;99.90
56336;DHT22;42241;53.510;10.170;2023-04-01T15:56:46;6.30;99.90
56336;DHT22;42241;53.510;10.170;2023-04-01T15:59:22;6.30;99.90
56336;DHT22;42241;53.510;10.170;2023-04-01T16:01:53;6.30;99.90
56336;DHT22;42241;53.510;10.170;2023-04-01T16:06:53;6.30;99.90
56336;DHT22;42241;53.510;10.170;2023-04-01T16:15:10;6.20;99.90
56336;DHT22;42241;53.510;10.170;2023-04-01T16:17:58;6.10;99.90
56336;DHT22;42241;53.510;10.170;2023-04-01T16:23:12;6.00;99.90
56336;DHT22;42241;53.510;10.170;2023-04-01T16:25:40;5.90;99.90
56336;DHT22;42241;53.510;10.170;2023-04-01T16:30:38;5.80;99.90
56336;DHT22;42241;53.510;10.170;2023-04-01T16:33:22;5.70;99.90
56336;DHT22;42241;53.510;10.170;2023-04-01T16:36:07;5.80;99.90
56336;DHT22;42241;53.510;10.170;2023-04-01T16:38:47;5.80;99.90
56336;DHT22;42241;53.510;10.170;2023-04-01T16:41:19;5.70;99.90
56336;DHT22;42241;53.510;10.170;2023-04-01T16:46:39;5.70;99.90
56336;DHT22;42241;53.510;10.170;2023-04-01T17:02:02;5.70;99.90
56336;DHT22;42241;53.510;10.170;2023-04-01T17:04:34;5.80;99.90
56336;DHT22;42241;53.510;10.170;2023-04-01T17:12:40;5.50;99.90
56336;DHT22;42241;53.510;10.170;2023-04-01T17:15:20;5.50;99.90
56336;DHT22;42241;53.510;10.170;2023-04-01T17:20:31;5.50;99.90
56336;DHT22;42241;53.510;10.170;2023-04-01T17:23:01;5.40;99.90
56336;DHT22;42241;53.510;10.170;2023-04-01T17:25:47;5.40;99.90
56336;DHT22;42241;53.510;10.170;2023-04-01T17:28:20;5.30;99.90
56336;DHT22;42241;53.510;10.170;2023-04-01T17:30:58;5.30;99.90
56336;DHT22;42241;53.510;10.170;2023-04-01T17:33:35;5.30;99.90
56336;DHT22;42241;53.510;10.170;2023-04-01T17:36:07;5.30;99.90
56336;DHT22;42241;53.510;10.170;2023-04-01T17:41:08;5.30;99.90
56336;DHT22;42241;53.510;10.170;2023-04-01T17:43:42;5.30;99.90
56336;DHT22;42241;53.510;10.170;2023-04-01T18:04:18;5.30;99.90
56336;DHT22;42241;53.510;10.170;2023-04-01T18:11:45;5.20;99.90
56336;DHT22;42241;53.510;10.170;2023-04-01T18:26:50;5.00;99.90
56336;DHT22;42241;53.510;10.170;2023-04-01T18:29:31;5.00;99.90
56336;DHT22;42241;53.510;10.170;2023-04-01T18:32:10;5.00;99.90
56336;DHT22;42241;53.510;10.170;2023-04-01T18:37:34;5.00;99.90
56336;DHT22;42241;53.510;10.170;2023-04-01T18:42:41;4.90;99.90
56336;DHT22;42241;53.510;10.170;2023-04-01T18:45:17;4.80;99.90
56336;DHT22;42241;53.510;10.170;2023-04-01T18:53:22;4.80;99.90
56336;DHT22;42241;53.510;10.170;2023-04-01T18:55:56;4.70;99.90
56336;DHT22;42241;53.510;10.170;2023-04-01T18:58:36;4.80;99.90
56336;DHT22;42241;53.510;10.170;2023-04-01T19:01:10;4.70;99.90
56336;DHT22;42241;53.510;10.170;2023-04-01T19:06:14;4.70;99.90
56336;DHT22;42241;53.510;10.170;2023-04-01T19:08:46;4.70;99.90
56336;DHT22;42241;53.510;10.170;2023-04-01T19:21:33;4.40;99.90
56336;DHT22;42241;53.510;10.170;2023-04-01T19:34:07;4.40;99.90
56336;DHT22;42241;53.510;10.170;2023-04-01T19:54:43;3.90;99.90
56336;DHT22;42241;53.510;10.170;2023-04-01T20:07:47;3.70;99.90
56336;DHT22;42241;53.510;10.170;2023-04-01T20:15:32;3.40;99.90
56336;DHT22;42241;53.510;10.170;2023-04-01T20:17:59;3.40;99.90
56336;DHT22;42241;53.510;10.170;2023-04-01T20:20:29;3.40;99.90
56336;DHT22;42241;53.510;10.170;2023-04-01T20:40:51;3.30;99.90
56336;DHT22;42241;53.510;10.170;2023-04-01T20:53:36;3.10;99.90
56336;DHT22;42241;53.510;10.170;2023-04-01T21:01:13;3.10;99.90
56336;DHT22;42241;53.510;10.170;2023-04-01T21:08:53;2.90;99.90
56336;DHT22;42241;53.510;10.170;2023-04-01T21:22:00;2.90;99.90
56336;DHT22;42241;53.510;10.170;2023-04-01T21:29:50;2.80;99.90
56336;DHT22;42241;53.510;10.170;2023-04-01T21:52:54;2.50;99.90
56336;DHT22;42241;53.510;10.170;2023-04-01T22:00:59;2.50;99.90
56336;DHT22;42241;53.510;10.170;2023-04-01T22:19:00;2.30;99.90
56336;DHT22;42241;53.510;10.170;2023-04-01T22:26:53;2.30;99.90
56336;DHT22;42241;53.510;10.170;2023-04-01T22:29:38;2.30;99.90
56336;DHT22;42241;53.510;10.170;2023-04-01T22:32:11;2.20;99.90
56336;DHT22;42241;53.510;10.170;2023-04-01T22:44:45;2.20;99.90
56336;DHT22;42241;53.510;10.170;2023-04-01T22:49:59;2.20;99.90
56336;DHT22;42241;53.510;10.170;2023-04-01T22:52:33;2.10;99.90
56336;DHT22;42241;53.510;10.170;2023-04-01T22:55:21;2.10;99.90
56336;DHT22;42241;53.510;10.170;2023-04-01T22:57:49;2.10;99.90
56336;DHT22;42241;53.510;10.170;2023-04-01T23:03:04;2.00;99.90
56336;DHT22;42241;53.510;10.170;2023-04-01T23:05:32;2.10;99.90
56336;DHT22;42241;53.510;10.170;2023-04-01T23:10:46;2.00;99.90
56336;DHT22;42241;53.510;10.170;2023-04-01T23:13:18;2.00;99.90
56336;DHT22;42241;53.510;10.170;2023-04-01T23:15:45;2.10;99.90
56336;DHT22;42241;53.510;10.170;2023-04-01T23:18:17;2.10;99.90
56336;DHT22;42241;53.510;10.170;2023-04-01T23:23:23;2.00;99.90
56336;DHT22;42241;53.510;10.170;2023-04-01T23:26:12;2.00;99.90
56336;DHT22;42241;53.510;10.170;2023-04-01T23:34:01;2.00;99.90
56336;DHT22;42241;53.510;10.170;2023-04-01T23:36:29;1.90;99.90
56336;DHT22;42241;53.510;10.170;2023-04-01T23:38:56;1.90;99.90
56336;DHT22;42241;53.510;10.170;2023-04-01T23:41:27;1.80;99.90
56336;DHT22;42241;53.510;10.170;2023-04-01T23:43:58;1.80;99.90
56336;DHT22;42241;53.510;10.170;2023-04-01T23:46:27;1.80;99.90
56336;DHT22;42241;53.510;10.170;2023-04-01T23:48:54;1.80;99.90
56336;DHT22;42241;53.510;10.170;2023-04-01T23:51:25;1.80;99.90
56336;DHT22;42241;53.510;10.170;2023-04-01T23:54:24;1.80;99.90
56336;DHT22;42241;53.510;10.170;2023-04-01T23:56:51;1.80;99.90
56336;DHT22;42241;53.510;10.170;2023-04-01T23:59:17;1.80;99.90
